Time;durP1;ratioP1;P1;durP2;ratioP2;P2;SDS_P1;SDS_P2;PMS_P1;PMS_P2;Temp;Humidity;BMP_temperature;BMP_pressure;BME280_temperature;BME280_humidity;BME280_pressure;Samples;Min_cycle;Max_cycle;Signal;HPM_P1;HPM_P2
2024/01/20 00:01:26;;;;;;;6.80;2.33;;;1.20;99.90;;;;;;5086579;28;20044;-67
2024/01/20 00:03:54;;;;;;;6.07;2.58;;;1.20;99.90;;;;;;5078447;28;20056;-63
2024/01/20 00:06:22;;;;;;;4.78;2.03;;;1.30;99.90;;;;;;5088376;28;20056;-70
2024/01/20 00:08:49;;;;;;;7.32;2.15;;;1.30;99.90;;;;;;5082793;28;20048;-70
2024/01/20 00:11:17;;;;;;;6.13;2.28;;;1.30;99.90;;;;;;5085313;28;20048;-67
2024/01/20 00:13:45;;;;;;;3.88;2.03;;;1.30;99.90;;;;;;5084987;28;20044;-66
2024/01/20 00:16:13;;;;;;;9.10;3.30;;;1.40;99.90;;;;;;5087576;28;20048;-68
2024/01/20 00:18:41;;;;;;;9.05;2.30;;;1.40;99.90;;;;;;5087152;28;20044;-68
2024/01/20 00:21:09;;;;;;;4.50;2.00;;;1.40;99.90;;;;;;5075407;28;20058;-68
2024/01/20 00:23:37;;;;;;;5.22;2.15;;;1.40;99.90;;;;;;5090718;28;20410;-67
2024/01/20 00:26:05;;;;;;;4.82;2.00;;;1.40;99.90;;;;;;5107264;28;20040;-67
2024/01/20 00:28:33;;;;;;;5.03;2.58;;;1.40;99.90;;;;;;5091922;28;20036;-65
2024/01/20 00:31:01;;;;;;;3.92;1.92;;;1.40;99.90;;;;;;5081848;28;20459;-64
2024/01/20 00:33:29;;;;;;;5.53;2.05;;;1.50;99.90;;;;;;5074394;28;20207;-69
2024/01/20 00:35:57;;;;;;;5.68;2.17;;;1.50;99.90;;;;;;5086784;28;20047;-68
2024/01/20 00:38:26;;;;;;;7.57;1.98;;;1.50;99.90;;;;;;5087992;28;20051;-67
2024/01/20 00:40:53;;;;;;;8.25;1.80;;;1.60;99.90;;;;;;5087360;28;20403;-68
2024/01/20 00:43:21;;;;;;;4.72;2.10;;;1.60;99.90;;;;;;5087165;28;20659;-70
2024/01/20 00:45:49;;;;;;;4.07;1.98;;;1.60;99.90;;;;;;5085679;28;20048;-69
2024/01/20 00:48:16;;;;;;;10.20;2.25;;;1.60;99.90;;;;;;5086178;28;20040;-69
2024/01/20 00:50:44;;;;;;;4.00;2.00;;;1.60;99.90;;;;;;5086071;28;20044;-70
2024/01/20 00:53:12;;;;;;;10.82;2.78;;;1.60;99.90;;;;;;5076918;28;20044;-69
2024/01/20 00:55:40;;;;;;;3.90;1.92;;;1.60;99.90;;;;;;5077155;28;20055;-69
2024/01/20 00:58:08;;;;;;;5.72;2.10;;;1.60;99.90;;;;;;5074849;28;20680;-70
2024/01/20 01:00:37;;;;;;;3.55;2.00;;;1.60;99.90;;;;;;5081896;28;20059;-63
2024/01/20 01:03:04;;;;;;;5.50;2.15;;;1.60;99.90;;;;;;5083604;28;20048;-67
2024/01/20 01:05:32;;;;;;;6.40;2.72;;;1.60;99.90;;;;;;5079953;28;20048;-64
2024/01/20 01:08:00;;;;;;;7.47;2.47;;;1.60;99.90;;;;;;5083028;28;20055;-63
2024/01/20 01:10:28;;;;;;;3.80;1.80;;;1.60;99.90;;;;;;5077989;28;20049;-62
2024/01/20 01:12:55;;;;;;;4.97;2.30;;;1.60;99.90;;;;;;5068526;28;20476;-61
2024/01/20 01:15:24;;;;;;;6.38;2.58;;;1.60;99.90;;;;;;5085100;28;20063;-70
2024/01/20 01:17:52;;;;;;;5.10;2.35;;;1.60;99.90;;;;;;5082929;28;20411;-70
2024/01/20 01:20:19;;;;;;;5.30;2.33;;;1.60;99.90;;;;;;5079457;28;20388;-70
2024/01/20 01:22:50;;;;;;;5.47;1.77;;;1.60;99.90;;;;;;5059119;28;20485;-64
2024/01/20 01:25:19;;;;;;;6.75;2.22;;;1.60;99.90;;;;;;5086652;28;20063;-68
2024/01/20 01:27:47;;;;;;;5.32;2.20;;;1.60;99.90;;;;;;5089723;28;20055;-64
2024/01/20 01:30:15;;;;;;;4.20;2.47;;;1.60;99.90;;;;;;5086568;28;20499;-68
2024/01/20 01:32:42;;;;;;;4.13;2.20;;;1.60;99.90;;;;;;5091207;28;20044;-61
2024/01/20 01:35:10;;;;;;;7.57;2.40;;;1.60;99.90;;;;;;5087284;28;20045;-64
2024/01/20 01:37:38;;;;;;;5.97;2.80;;;1.60;99.90;;;;;;5090816;28;20759;-62
2024/01/20 01:40:07;;;;;;;6.72;2.72;;;1.60;99.90;;;;;;5089612;28;20056;-63
2024/01/20 01:42:34;;;;;;;5.10;2.25;;;1.70;99.90;;;;;;5090639;28;20048;-64
2024/01/20 01:45:02;;;;;;;7.13;2.45;;;1.80;99.90;;;;;;5085623;28;20048;-61
2024/01/20 01:47:31;;;;;;;10.80;3.22;;;1.80;99.90;;;;;;5089267;28;20055;-62
2024/01/20 01:49:59;;;;;;;10.13;2.95;;;1.90;99.90;;;;;;5082764;28;20040;-66
2024/01/20 01:52:28;;;;;;;6.57;2.65;;;2.00;99.90;;;;;;5075387;28;20063;-65
2024/01/20 01:54:57;;;;;;;8.32;2.88;;;2.00;99.90;;;;;;5066761;28;20052;-62
2024/01/20 01:57:25;;;;;;;6.03;3.67;;;2.00;99.90;;;;;;5090674;28;20047;-69
2024/01/20 01:59:54;;;;;;;12.02;3.75;;;2.10;99.90;;;;;;5083901;28;20085;-68
2024/01/20 02:02:22;;;;;;;9.38;4.40;;;2.10;99.90;;;;;;5070553;28;20044;-68
2024/01/20 02:04:50;;;;;;;7.82;3.20;;;2.10;99.90;;;;;;5088386;28;20472;-70
2024/01/20 02:07:18;;;;;;;6.82;3.50;;;2.20;99.90;;;;;;5080615;28;20044;-68
2024/01/20 02:09:46;;;;;;;7.07;3.22;;;2.20;99.90;;;;;;5083760;28;20051;-67
2024/01/20 02:12:14;;;;;;;6.03;3.17;;;2.20;99.90;;;;;;5090603;28;20055;-70
2024/01/20 02:14:46;;;;;;;11.98;3.70;;;2.20;99.90;;;;;;5085035;28;20059;-69
2024/01/20 02:17:14;;;;;;;6.70;3.35;;;2.20;99.90;;;;;;5089968;28;20048;-72
2024/01/20 02:19:41;;;;;;;5.05;2.83;;;2.30;99.90;;;;;;5090210;28;20039;-69
2024/01/20 02:22:11;;;;;;;8.85;3.05;;;2.30;99.90;;;;;;5088460;28;20055;-69
2024/01/20 02:24:40;;;;;;;7.68;3.17;;;2.30;99.90;;;;;;5087493;28;20036;-71
2024/01/20 02:27:09;;;;;;;7.53;3.30;;;2.30;99.90;;;;;;5089543;28;20055;-70
2024/01/20 02:29:39;;;;;;;6.57;3.13;;;2.30;99.90;;;;;;5086159;28;20036;-69
2024/01/20 02:32:07;;;;;;;5.70;2.83;;;2.30;99.90;;;;;;5075415;28;20061;-69
2024/01/20 02:34:36;;;;;;;8.90;3.70;;;2.30;99.90;;;;;;5093323;28;20040;-70
2024/01/20 02:37:06;;;;;;;;;;;2.30;99.90;;;;;;5088262;28;20037;-62
2024/01/20 02:39:34;;;;;;;6.95;2.90;;;2.40;99.90;;;;;;5089796;28;19924;-61
2024/01/20 02:42:02;;;;;;;6.88;3.72;;;2.40;99.90;;;;;;5093035;28;20047;-62
2024/01/20 02:44:30;;;;;;;7.18;3.10;;;2.40;99.90;;;;;;5090337;28;20044;-69
2024/01/20 02:46:57;;;;;;;7.22;3.00;;;2.40;99.90;;;;;;5089808;28;20512;-62
2024/01/20 02:49:25;;;;;;;7.43;3.08;;;2.40;99.90;;;;;;5082634;28;20055;-63
2024/01/20 02:51:52;;;;;;;7.13;2.60;;;2.40;99.90;;;;;;5078098;28;20044;-63
2024/01/20 02:54:20;;;;;;;7.90;3.10;;;2.40;99.90;;;;;;5077099;28;20048;-70
2024/01/20 02:56:48;;;;;;;6.45;2.83;;;2.50;99.90;;;;;;5090924;28;20044;-69
2024/01/20 02:59:16;;;;;;;9.88;2.67;;;2.50;99.90;;;;;;5090485;28;20056;-69
2024/01/20 03:01:43;;;;;;;3.53;2.38;;;2.50;99.90;;;;;;5093650;28;20388;-70
2024/01/20 03:04:11;;;;;;;4.53;2.45;;;2.50;99.90;;;;;;5091687;28;20059;-64
2024/01/20 03:06:39;;;;;;;6.03;2.65;;;2.50;99.90;;;;;;5091659;28;20391;-70
2024/01/20 03:09:07;;;;;;;7.80;2.33;;;2.50;99.90;;;;;;5084820;28;20051;-62
2024/01/20 03:11:35;;;;;;;5.22;2.40;;;2.50;99.90;;;;;;5076162;28;20076;-62
2024/01/20 03:14:03;;;;;;;4.15;2.25;;;2.40;99.90;;;;;;5089123;28;20059;-62
2024/01/20 03:16:31;;;;;;;7.30;2.70;;;2.40;99.90;;;;;;5092040;28;20055;-62
2024/01/20 03:18:59;;;;;;;4.25;2.42;;;2.40;99.90;;;;;;5092622;28;20403;-61
2024/01/20 03:21:26;;;;;;;4.85;2.28;;;2.30;99.90;;;;;;5091900;28;20048;-62
2024/01/20 03:23:54;;;;;;;5.03;2.30;;;2.30;99.90;;;;;;5072397;28;20049;-62
2024/01/20 03:26:22;;;;;;;5.55;2.33;;;2.20;99.90;;;;;;5073463;28;20048;-62
2024/01/20 03:28:49;;;;;;;5.28;2.67;;;2.20;99.90;;;;;;5083732;28;20048;-62
2024/01/20 03:31:18;;;;;;;6.55;2.55;;;2.20;99.90;;;;;;5092600;28;20391;-61
2024/01/20 03:33:45;;;;;;;4.32;2.53;;;2.10;99.90;;;;;;5088198;28;20506;-61
2024/01/20 03:36:13;;;;;;;3.85;2.40;;;2.10;99.90;;;;;;5075123;28;20042;-62
2024/01/20 03:38:41;;;;;;;8.38;2.60;;;2.10;99.90;;;;;;5080440;28;20052;-67
2024/01/20 03:41:08;;;;;;;7.30;2.58;;;2.00;99.90;;;;;;5089094;28;20055;-62
2024/01/20 03:43:36;;;;;;;4.82;2.40;;;2.00;99.90;;;;;;5072288;28;20056;-61
2024/01/20 03:46:04;;;;;;;8.32;2.80;;;2.00;99.90;;;;;;5079864;28;20384;-61
2024/01/20 03:48:32;;;;;;;4.90;2.35;;;2.00;99.90;;;;;;5073748;28;20053;-61
2024/01/20 03:51:02;;;;;;;6.05;2.15;;;1.90;99.90;;;;;;5071064;28;20388;-63
2024/01/20 03:53:30;;;;;;;7.85;2.38;;;1.90;99.90;;;;;;5083799;28;20519;-62
2024/01/20 03:55:58;;;;;;;4.60;2.40;;;1.90;99.90;;;;;;5076169;28;20036;-64
2024/01/20 03:58:26;;;;;;;4.55;2.03;;;1.90;99.90;;;;;;5074792;28;20047;-62
2024/01/20 04:00:53;;;;;;;6.22;2.50;;;1.90;99.90;;;;;;5075978;28;20032;-62
2024/01/20 04:03:21;;;;;;;4.25;1.88;;;1.90;99.90;;;;;;5091252;28;20044;-61
2024/01/20 04:05:48;;;;;;;7.10;2.25;;;1.90;99.90;;;;;;5069995;28;20055;-69
2024/01/20 04:08:16;;;;;;;8.65;2.50;;;2.00;99.90;;;;;;5088501;28;20054;-61
2024/01/20 04:10:44;;;;;;;6.35;2.75;;;2.00;99.90;;;;;;5082403;28;20051;-64
2024/01/20 04:13:11;;;;;;;8.30;2.83;;;2.00;99.90;;;;;;5071420;28;20056;-66
2024/01/20 04:15:39;;;;;;;6.88;2.40;;;2.00;99.90;;;;;;5070349;28;20044;-63
2024/01/20 04:18:06;;;;;;;3.88;2.30;;;2.00;99.90;;;;;;5086673;28;20040;-66
2024/01/20 04:20:34;;;;;;;6.82;3.00;;;2.00;99.90;;;;;;5090101;28;20488;-65
2024/01/20 04:23:02;;;;;;;7.78;3.25;;;2.00;99.90;;;;;;5070163;28;20052;-61
2024/01/20 04:25:30;;;;;;;4.43;2.40;;;2.00;99.90;;;;;;5070316;28;20041;-65
2024/01/20 04:27:58;;;;;;;3.55;1.90;;;1.90;99.90;;;;;;5085384;28;20048;-65
2024/01/20 04:30:25;;;;;;;8.68;2.13;;;1.90;99.90;;;;;;5091652;28;20040;-63
2024/01/20 04:32:53;;;;;;;3.58;1.75;;;1.90;99.90;;;;;;5070940;28;20400;-64
2024/01/20 04:35:21;;;;;;;4.55;1.92;;;2.00;99.90;;;;;;5070043;28;20045;-63
2024/01/20 04:37:48;;;;;;;3.22;1.85;;;2.00;99.90;;;;;;5085747;28;20047;-62
2024/01/20 04:40:16;;;;;;;2.63;1.63;;;2.00;99.90;;;;;;5089672;28;20549;-62
2024/01/20 04:42:44;;;;;;;1.88;1.45;;;2.10;99.90;;;;;;5070662;28;20041;-63
2024/01/20 04:45:13;;;;;;;4.22;1.80;;;2.00;99.90;;;;;;5071242;28;20056;-65
2024/01/20 04:47:41;;;;;;;;;;;2.10;99.90;;;;;;5082702;28;20173;-66
2024/01/20 04:50:08;;;;;;;3.75;1.60;;;2.10;99.90;;;;;;5075769;28;19921;-62
2024/01/20 04:52:36;;;;;;;5.43;1.55;;;2.10;99.90;;;;;;5071004;28;20040;-63
2024/01/20 04:55:04;;;;;;;2.28;1.48;;;2.10;99.90;;;;;;5071199;28;20052;-65
2024/01/20 04:57:32;;;;;;;3.15;1.27;;;2.10;99.90;;;;;;5083029;28;20059;-61
2024/01/20 05:00:00;;;;;;;3.47;1.23;;;2.10;99.90;;;;;;5091726;28;20048;-68
2024/01/20 05:02:27;;;;;;;2.83;1.50;;;2.10;99.90;;;;;;5092003;28;20032;-63
2024/01/20 05:04:55;;;;;;;6.53;1.65;;;2.20;99.90;;;;;;5093861;28;20044;-63
2024/01/20 05:07:22;;;;;;;3.83;1.58;;;2.20;99.90;;;;;;5094409;28;20048;-66
2024/01/20 05:09:50;;;;;;;5.75;1.38;;;2.20;99.90;;;;;;5093573;28;20047;-67
2024/01/20 05:12:18;;;;;;;5.18;0.93;;;2.20;99.90;;;;;;5095047;28;20044;-65
2024/01/20 05:14:46;;;;;;;3.53;1.92;;;2.10;99.90;;;;;;5094480;28;20048;-64
2024/01/20 05:17:14;;;;;;;10.60;1.52;;;2.10;99.90;;;;;;5089714;28;20045;-66
2024/01/20 05:19:41;;;;;;;5.05;1.70;;;2.10;99.90;;;;;;5092117;28;20040;-64
2024/01/20 05:22:09;;;;;;;2.17;1.10;;;2.10;99.90;;;;;;5094593;28;20044;-65
2024/01/20 05:24:36;;;;;;;19.20;1.45;;;2.00;99.90;;;;;;5079274;28;20051;-63
2024/01/20 05:27:04;;;;;;;7.30;1.30;;;2.10;99.90;;;;;;5080589;28;20043;-67
2024/01/20 05:29:32;;;;;;;2.58;1.42;;;2.10;99.90;;;;;;5095165;28;20059;-65
2024/01/20 05:31:59;;;;;;;3.92;1.30;;;2.10;99.90;;;;;;5094845;28;20483;-63
2024/01/20 05:34:27;;;;;;;3.50;1.00;;;2.20;99.90;;;;;;5093979;28;20632;-65
2024/01/20 05:36:57;;;;;;;2.10;1.20;;;2.20;99.90;;;;;;5094304;28;20044;-64
2024/01/20 05:39:25;;;;;;;4.95;0.93;;;2.30;99.90;;;;;;5094677;28;20063;-65
2024/01/20 05:41:52;;;;;;;3.10;1.08;;;2.30;99.90;;;;;;5093912;28;20071;-67
2024/01/20 05:44:20;;;;;;;2.55;1.10;;;2.40;99.90;;;;;;5079021;28;20040;-62
2024/01/20 05:46:48;;;;;;;2.15;0.82;;;2.40;99.90;;;;;;5074201;28;20629;-66
2024/01/20 05:49:18;;;;;;;2.25;0.90;;;2.50;99.90;;;;;;5085313;28;20052;-67
2024/01/20 05:51:46;;;;;;;3.47;1.02;;;2.50;99.90;;;;;;5090994;28;20044;-62
2024/01/20 05:54:14;;;;;;;4.25;0.90;;;2.60;99.90;;;;;;5077672;28;20488;-69
2024/01/20 05:56:42;;;;;;;4.05;0.70;;;2.60;99.90;;;;;;5070728;28;20052;-63
2024/01/20 05:59:09;;;;;;;2.90;0.80;;;2.60;99.90;;;;;;5088512;28;20051;-62
2024/01/20 06:01:37;;;;;;;3.40;0.70;;;2.60;99.90;;;;;;5088224;28;20048;-62
2024/01/20 06:04:05;;;;;;;2.83;1.30;;;2.70;99.90;;;;;;5077181;28;20048;-60
2024/01/20 06:06:32;;;;;;;1.52;1.00;;;2.70;99.90;;;;;;5086829;28;20484;-61
2024/01/20 06:09:00;;;;;;;6.75;0.85;;;2.80;99.90;;;;;;5085507;28;20507;-62
2024/01/20 06:11:28;;;;;;;6.70;0.80;;;2.80;99.90;;;;;;5088936;28;20491;-62
2024/01/20 06:13:55;;;;;;;1.77;0.95;;;2.80;99.90;;;;;;5088714;28;20395;-66
2024/01/20 06:16:23;;;;;;;6.50;1.65;;;2.80;99.90;;;;;;5091105;28;20051;-70
2024/01/20 06:18:51;;;;;;;5.68;0.73;;;2.80;99.90;;;;;;5089078;28;20040;-69
2024/01/20 06:21:21;;;;;;;3.17;0.80;;;2.80;99.90;;;;;;5090342;28;20052;-71
2024/01/20 06:23:50;;;;;;;5.63;0.70;;;2.90;99.90;;;;;;5089736;28;20486;-70
2024/01/20 06:26:17;;;;;;;2.30;0.60;;;2.80;99.90;;;;;;5089145;28;20052;-69
2024/01/20 06:28:46;;;;;;;1.48;0.73;;;2.90;99.90;;;;;;5103112;28;20066;-69
2024/01/20 06:31:27;;;;;;;3.95;0.88;;;2.90;99.90;;;;;;5109496;28;20055;-63
2024/01/20 06:33:56;;;;;;;3.75;0.90;;;2.90;99.90;;;;;;5080020;28;20051;-75
2024/01/20 06:36:25;;;;;;;4.03;0.80;;;2.90;99.90;;;;;;5082878;28;20044;-68
2024/01/20 06:38:53;;;;;;;2.00;0.60;;;2.90;99.90;;;;;;5086190;28;20040;-70
2024/01/20 06:41:21;;;;;;;2.22;0.85;;;3.00;99.90;;;;;;5087828;28;20055;-71
2024/01/20 06:43:49;;;;;;;4.40;1.02;;;3.00;99.90;;;;;;5090355;28;20052;-70
2024/01/20 06:46:16;;;;;;;7.53;1.65;;;3.00;99.90;;;;;;5073883;28;20049;-64
2024/01/20 06:48:44;;;;;;;9.40;1.15;;;3.10;99.90;;;;;;5071547;28;20044;-64
2024/01/20 06:51:14;;;;;;;2.72;0.70;;;3.00;99.90;;;;;;5067344;28;20045;-66
2024/01/20 06:53:43;;;;;;;3.70;1.13;;;3.10;99.90;;;;;;5102834;28;20043;-63
2024/01/20 06:56:11;;;;;;;2.58;0.82;;;3.10;99.90;;;;;;5095549;28;20040;-61
2024/01/20 06:58:39;;;;;;;2.22;0.73;;;3.10;99.90;;;;;;5089515;28;20059;-63
2024/01/20 07:01:07;;;;;;;6.95;1.30;;;3.20;99.90;;;;;;5087315;28;20052;-62
2024/01/20 07:03:35;;;;;;;2.28;0.82;;;3.10;99.90;;;;;;5080837;28;20040;-64
2024/01/20 07:06:03;;;;;;;2.25;0.93;;;3.20;99.90;;;;;;5078452;28;20056;-62
2024/01/20 07:08:31;;;;;;;2.67;0.50;;;3.20;99.90;;;;;;5088663;28;20048;-61
2024/01/20 07:10:59;;;;;;;3.95;0.68;;;3.20;99.90;;;;;;5089365;28;20048;-63
2024/01/20 07:13:26;;;;;;;3.53;1.08;;;3.30;99.90;;;;;;5089052;28;20063;-61
2024/01/20 07:15:55;;;;;;;3.00;0.55;;;3.30;99.90;;;;;;5086327;28;20659;-62
2024/01/20 07:18:23;;;;;;;5.97;1.73;;;3.30;99.90;;;;;;5080105;28;20404;-63
2024/01/20 07:20:52;;;;;;;3.78;0.75;;;3.40;99.90;;;;;;5086119;28;20047;-67
2024/01/20 07:23:20;;;;;;;5.67;0.80;;;3.40;99.90;;;;;;5085739;28;20048;-66
2024/01/20 07:25:47;;;;;;;4.35;1.85;;;3.40;99.90;;;;;;5085680;28;20040;-62
2024/01/20 07:28:15;;;;;;;3.10;0.63;;;3.40;99.90;;;;;;5088844;28;20051;-65
2024/01/20 07:30:43;;;;;;;6.38;0.70;;;3.40;99.90;;;;;;5089033;28;20059;-66
2024/01/20 07:33:11;;;;;;;3.95;0.75;;;3.50;99.90;;;;;;5093938;28;20503;-68
2024/01/20 07:35:39;;;;;;;9.97;1.70;;;3.40;99.90;;;;;;5073255;28;20047;-67
2024/01/20 07:38:08;;;;;;;5.43;0.80;;;3.40;99.90;;;;;;5078571;28;20040;-63
2024/01/20 07:40:36;;;;;;;5.38;1.50;;;3.40;99.90;;;;;;5075081;28;20049;-63
2024/01/20 07:43:04;;;;;;;1.80;1.13;;;3.50;99.90;;;;;;5074852;28;20051;-67
2024/01/20 07:45:31;;;;;;;2.80;0.70;;;3.40;99.90;;;;;;5088565;28;20067;-61
2024/01/20 07:48:00;;;;;;;4.53;0.80;;;3.40;99.90;;;;;;5087933;28;20047;-64
2024/01/20 07:50:28;;;;;;;3.72;0.50;;;3.50;99.90;;;;;;5083367;28;20051;-63
2024/01/20 07:52:56;;;;;;;3.13;0.70;;;3.50;99.90;;;;;;5088336;28;20047;-62
2024/01/20 07:55:24;;;;;;;2.42;0.43;;;3.50;99.90;;;;;;5086820;28;20063;-62
2024/01/20 07:57:52;;;;;;;1.60;0.40;;;3.50;99.90;;;;;;5086307;28;20048;-62
2024/01/20 08:00:20;;;;;;;6.80;0.80;;;3.50;99.90;;;;;;5088334;28;20043;-62
2024/01/20 08:02:48;;;;;;;0.73;0.43;;;3.60;99.90;;;;;;5085046;28;20048;-62
2024/01/20 08:05:15;;;;;;;1.58;0.60;;;3.50;99.90;;;;;;5076198;28;20048;-62
2024/01/20 08:07:44;;;;;;;0.98;0.50;;;3.50;99.90;;;;;;5085178;28;20059;-62
2024/01/20 08:10:11;;;;;;;7.20;1.15;;;3.60;99.90;;;;;;5088430;28;20494;-63
2024/01/20 08:12:39;;;;;;;5.00;0.52;;;3.60;99.90;;;;;;5084297;28;20051;-62
2024/01/20 08:15:07;;;;;;;5.35;0.95;;;3.60;99.90;;;;;;5084530;28;20048;-62
2024/01/20 08:17:35;;;;;;;5.50;1.02;;;3.60;99.90;;;;;;5084913;28;20511;-63
2024/01/20 08:20:03;;;;;;;4.55;0.40;;;3.60;99.90;;;;;;5082852;28;20055;-61
2024/01/20 08:22:31;;;;;;;6.78;0.75;;;3.60;99.90;;;;;;5086949;28;20044;-62
2024/01/20 08:24:59;;;;;;;3.10;0.60;;;3.60;99.90;;;;;;5088225;28;20047;-63
2024/01/20 08:27:27;;;;;;;3.28;0.60;;;3.60;99.90;;;;;;5088167;28;20044;-64
2024/01/20 08:29:55;;;;;;;3.92;0.70;;;3.60;99.90;;;;;;5084960;28;20051;-62
2024/01/20 08:32:22;;;;;;;7.63;0.85;;;3.60;99.90;;;;;;5054637;28;20048;-65
2024/01/20 08:34:50;;;;;;;3.85;0.50;;;3.60;99.90;;;;;;5079889;28;20036;-63
2024/01/20 08:37:18;;;;;;;4.55;1.15;;;3.60;99.90;;;;;;5095811;28;20043;-62
2024/01/20 08:39:47;;;;;;;1.63;0.52;;;3.60;99.90;;;;;;5105443;28;20051;-64
2024/01/20 08:42:15;;;;;;;3.35;0.60;;;3.60;99.90;;;;;;5094718;28;20044;-62
2024/01/20 08:44:43;;;;;;;3.80;1.10;;;3.60;99.90;;;;;;5115302;28;20044;-65
2024/01/20 08:47:11;;;;;;;4.22;0.80;;;3.60;99.90;;;;;;5106159;28;20049;-64
2024/01/20 08:49:38;;;;;;;2.67;1.08;;;3.60;99.90;;;;;;5092844;28;20048;-66
2024/01/20 08:52:07;;;;;;;5.10;0.88;;;3.50;99.90;;;;;;5093807;28;20036;-67
2024/01/20 08:54:37;;;;;;;8.70;0.98;;;3.60;99.90;;;;;;5094957;28;20130;-69
2024/01/20 08:57:05;;;;;;;5.60;0.70;;;3.50;99.90;;;;;;5094816;28;20040;-68
2024/01/20 08:59:32;;;;;;;3.65;0.80;;;3.60;99.90;;;;;;5093173;28;20044;-67
2024/01/20 09:02:00;;;;;;;3.03;0.68;;;3.60;99.90;;;;;;5093121;28;20047;-66
2024/01/20 09:04:28;;;;;;;2.38;0.70;;;3.60;99.90;;;;;;5092856;28;20060;-70
2024/01/20 09:06:56;;;;;;;1.95;0.93;;;3.60;99.90;;;;;;5094119;28;20048;-70
2024/01/20 09:09:23;;;;;;;8.07;0.90;;;3.60;99.90;;;;;;5094151;28;20399;-69
2024/01/20 09:11:51;;;;;;;5.05;1.23;;;3.60;99.90;;;;;;5094246;28;20044;-63
2024/01/20 09:14:19;;;;;;;5.30;0.90;;;3.70;99.90;;;;;;5115006;27;20052;-70
2024/01/20 09:16:47;;;;;;;4.13;0.98;;;3.70;99.90;;;;;;5105502;28;20036;-64
2024/01/20 09:19:15;;;;;;;8.63;1.00;;;3.70;99.90;;;;;;5089143;28;20048;-70
2024/01/20 09:21:44;;;;;;;7.35;1.58;;;3.70;99.90;;;;;;5074599;28;20432;-70
2024/01/20 09:24:13;;;;;;;4.10;0.93;;;3.80;99.90;;;;;;5094165;28;20052;-62
2024/01/20 09:26:41;;;;;;;5.20;0.65;;;3.70;99.90;;;;;;5094484;28;20044;-63
2024/01/20 09:29:09;;;;;;;3.45;0.82;;;3.70;99.90;;;;;;5093574;28;20055;-65
2024/01/20 09:31:37;;;;;;;6.13;0.77;;;3.80;99.90;;;;;;5094345;28;20043;-70
2024/01/20 09:34:05;;;;;;;6.28;0.90;;;3.80;99.90;;;;;;5087990;28;20388;-63
2024/01/20 09:36:32;;;;;;;3.83;0.70;;;3.80;99.90;;;;;;5077783;28;20050;-66
2024/01/20 09:39:00;;;;;;;4.43;0.63;;;3.80;99.90;;;;;;5081975;28;20048;-70
2024/01/20 09:41:29;;;;;;;9.10;1.02;;;3.80;99.90;;;;;;5089597;28;20045;-69
2024/01/20 09:43:58;;;;;;;5.18;1.25;;;3.90;99.90;;;;;;5091187;28;20051;-69
2024/01/20 09:46:25;;;;;;;3.83;1.17;;;3.90;99.90;;;;;;5092754;28;20073;-70
2024/01/20 09:48:56;;;;;;;2.63;0.70;;;3.90;99.90;;;;;;5104329;28;20048;-69
2024/01/20 09:51:28;;;;;;;3.97;0.80;;;3.90;99.90;;;;;;5068856;28;20049;-67
2024/01/20 09:53:59;;;;;;;6.63;1.10;;;3.90;99.90;;;;;;5086754;28;20048;-70
2024/01/20 09:56:28;;;;;;;4.80;0.70;;;4.00;99.90;;;;;;5076218;28;20381;-70
2024/01/20 09:58:58;;;;;;;5.70;1.48;;;4.00;99.90;;;;;;5086868;28;20059;-70
2024/01/20 10:01:27;;;;;;;7.93;1.65;;;4.00;99.90;;;;;;5087896;28;20040;-69
2024/01/20 10:03:59;;;;;;;4.47;2.25;;;4.00;99.90;;;;;;5087286;28;20059;-68
2024/01/20 10:06:28;;;;;;;2.78;0.70;;;4.10;99.90;;;;;;5072263;28;20518;-69
2024/01/20 10:08:56;;;;;;;1.85;1.05;;;4.10;99.90;;;;;;5090750;28;20051;-68
2024/01/20 10:11:23;;;;;;;3.90;0.55;;;4.10;99.90;;;;;;5090747;28;20487;-67
2024/01/20 10:13:51;;;;;;;1.92;0.65;;;4.10;99.90;;;;;;5089257;28;20419;-68
2024/01/20 10:16:20;;;;;;;4.45;0.70;;;4.10;99.90;;;;;;5090702;28;20040;-69
2024/01/20 10:18:49;;;;;;;7.65;0.93;;;4.20;99.90;;;;;;5089999;28;20051;-69
2024/01/20 10:21:16;;;;;;;9.70;1.50;;;4.20;99.90;;;;;;5073608;28;20044;-67
2024/01/20 10:23:45;;;;;;;6.03;1.20;;;4.20;99.90;;;;;;5101138;28;20043;-70
2024/01/20 10:26:13;;;;;;;4.97;1.10;;;4.30;99.90;;;;;;5092261;28;20052;-69
2024/01/20 10:28:40;;;;;;;2.58;0.73;;;4.30;99.90;;;;;;5101963;28;20509;-69
2024/01/20 10:31:09;;;;;;;4.97;0.70;;;4.30;99.90;;;;;;5088481;28;20063;-63
2024/01/20 10:33:37;;;;;;;3.78;1.15;;;4.30;99.90;;;;;;5094721;28;20036;-66
2024/01/20 10:36:07;;;;;;;11.90;2.15;;;4.30;99.90;;;;;;5086718;28;20535;-69
2024/01/20 10:38:38;;;;;;;7.43;1.23;;;4.40;99.90;;;;;;5092611;28;20051;-70
2024/01/20 10:41:13;;;;;;;4.28;1.10;;;4.40;99.90;;;;;;5110419;28;20051;-62
2024/01/20 10:43:47;;;;;;;3.85;0.93;;;4.40;99.90;;;;;;5086104;28;20387;-62
2024/01/20 10:46:23;;;;;;;3.85;0.77;;;4.40;99.90;;;;;;5080839;28;20491;-62
2024/01/20 10:48:53;;;;;;;3.60;0.68;;;4.50;99.90;;;;;;5102051;28;20068;-63
2024/01/20 10:51:28;;;;;;;5.45;1.30;;;4.50;99.90;;;;;;5091012;28;20237;-62
2024/01/20 10:53:58;;;;;;;5.82;1.00;;;4.50;99.90;;;;;;5103958;28;20067;-63
2024/01/20 10:56:27;;;;;;;9.50;1.20;;;4.50;99.90;;;;;;5071539;28;20081;-62
2024/01/20 10:58:58;;;;;;;4.40;1.00;;;4.50;99.90;;;;;;5088937;28;20040;-64
2024/01/20 11:01:26;;;;;;;2.95;0.60;;;4.50;99.90;;;;;;5085112;28;20040;-64
2024/01/20 11:03:54;;;;;;;5.15;0.90;;;4.50;99.90;;;;;;5085631;28;20059;-63
2024/01/20 11:06:24;;;;;;;4.82;0.70;;;4.60;99.90;;;;;;5087016;28;20041;-65
2024/01/20 11:08:53;;;;;;;;;;;4.60;99.90;;;;;;5095783;28;20044;-69
2024/01/20 11:11:27;;;;;;;3.20;0.93;;;4.60;99.90;;;;;;5089112;28;19927;-69
2024/01/20 11:13:59;;;;;;;7.22;1.17;;;4.60;99.90;;;;;;5088859;28;20055;-68
2024/01/20 11:16:32;;;;;;;3.05;0.68;;;4.60;99.90;;;;;;5073434;28;20041;-61
2024/01/20 11:19:11;;;;;;;3.72;1.08;;;4.60;99.90;;;;;;5082880;28;20044;-63
2024/01/20 11:21:39;;;;;;;;;;;4.60;99.90;;;;;;5072265;28;20503;-70
2024/01/20 11:24:07;;;;;;;7.47;1.10;;;4.60;99.90;;;;;;5089453;28;20367;-70
2024/01/20 11:26:37;;;;;;;9.60;1.45;;;4.70;99.90;;;;;;5087919;28;20052;-69
2024/01/20 11:29:07;;;;;;;1.55;1.27;;;4.70;99.90;;;;;;5087465;28;20048;-65
2024/01/20 11:31:35;;;;;;;4.72;0.88;;;4.70;99.90;;;;;;5089193;28;20044;-69
2024/01/20 11:34:05;;;;;;;5.35;1.60;;;4.80;99.90;;;;;;5087715;28;20032;-69
2024/01/20 11:36:34;;;;;;;5.53;1.77;;;4.70;99.90;;;;;;5081240;28;20052;-62
2024/01/20 11:39:04;;;;;;;6.05;1.30;;;4.80;99.90;;;;;;5105737;28;20062;-68
2024/01/20 11:41:33;;;;;;;6.00;1.02;;;4.80;99.90;;;;;;5079751;28;20411;-61
2024/01/20 11:44:00;;;;;;;7.72;0.90;;;4.90;99.90;;;;;;5087846;28;20052;-61
2024/01/20 11:46:28;;;;;;;5.03;1.35;;;4.90;99.90;;;;;;5088692;28;20044;-70
2024/01/20 11:48:56;;;;;;;12.13;1.38;;;5.00;99.90;;;;;;5086888;28;20051;-69
2024/01/20 11:51:24;;;;;;;6.30;1.20;;;5.10;99.90;;;;;;5083824;28;20055;-70
2024/01/20 11:53:52;;;;;;;8.25;1.10;;;5.10;99.90;;;;;;5097565;28;20241;-69
2024/01/20 11:56:20;;;;;;;7.28;1.63;;;5.10;99.90;;;;;;5085660;28;20040;-69
2024/01/20 11:58:48;;;;;;;9.52;1.90;;;5.20;99.90;;;;;;5080988;28;20051;-64
2024/01/20 12:01:16;;;;;;;7.60;1.50;;;5.20;99.90;;;;;;5088666;28;20036;-61
2024/01/20 12:03:44;;;;;;;8.27;2.38;;;5.20;99.90;;;;;;5088297;28;20052;-66
2024/01/20 12:06:13;;;;;;;8.20;1.65;;;5.20;99.90;;;;;;5084112;28;20044;-69
2024/01/20 12:08:45;;;;;;;9.48;1.75;;;5.20;99.90;;;;;;5101908;28;20052;-67
2024/01/20 12:11:23;;;;;;;7.00;1.17;;;5.30;99.90;;;;;;5086577;28;20060;-66
2024/01/20 12:13:51;;;;;;;8.75;1.15;;;5.40;99.90;;;;;;5086896;28;20048;-70
2024/01/20 12:16:19;;;;;;;6.50;1.25;;;5.40;99.90;;;;;;5087641;28;20052;-68
2024/01/20 12:18:47;;;;;;;6.00;1.63;;;5.40;99.90;;;;;;5088052;28;20040;-61
2024/01/20 12:21:16;;;;;;;8.52;1.23;;;5.40;99.90;;;;;;5077641;28;20044;-68
2024/01/20 12:23:43;;;;;;;5.32;1.38;;;5.50;99.90;;;;;;5081867;28;20052;-66
2024/01/20 12:26:12;;;;;;;2.35;0.88;;;5.50;99.90;;;;;;5082327;28;20506;-63
2024/01/20 12:28:42;;;;;;;9.77;1.60;;;5.50;99.90;;;;;;5099696;28;20411;-62
2024/01/20 12:31:10;;;;;;;11.55;2.70;;;5.50;99.90;;;;;;5108542;28;20043;-65
2024/01/20 12:33:41;;;;;;;3.42;1.73;;;5.50;99.90;;;;;;5082184;28;20368;-71
2024/01/20 12:36:10;;;;;;;6.05;1.40;;;5.60;99.90;;;;;;5079959;28;20044;-62
2024/01/20 12:38:38;;;;;;;9.02;1.90;;;5.60;99.90;;;;;;5108299;28;20078;-70
2024/01/20 12:41:06;;;;;;;5.30;1.75;;;5.60;99.90;;;;;;5068316;28;20056;-68
2024/01/20 12:43:34;;;;;;;4.75;1.25;;;5.60;99.90;;;;;;5081374;28;20044;-69
2024/01/20 12:46:02;;;;;;;7.95;1.50;;;5.60;99.90;;;;;;5084111;28;20376;-63
2024/01/20 12:48:29;;;;;;;2.05;1.20;;;5.70;99.90;;;;;;5074254;28;20062;-66
2024/01/20 12:50:59;;;;;;;9.82;1.50;;;5.70;99.90;;;;;;5079635;28;20041;-69
2024/01/20 12:53:27;;;;;;;11.75;1.85;;;5.70;99.90;;;;;;5084508;28;20047;-61
2024/01/20 12:55:55;;;;;;;9.13;1.50;;;5.70;99.90;;;;;;5088013;28;20044;-64
2024/01/20 12:58:23;;;;;;;4.25;1.20;;;5.70;99.90;;;;;;5083519;28;20055;-64
2024/01/20 13:00:51;;;;;;;6.47;1.30;;;5.70;99.90;;;;;;5088183;28;20372;-64
2024/01/20 13:03:19;;;;;;;5.53;1.30;;;5.70;99.90;;;;;;5086537;28;20052;-63